KHYA

Barnstable Municipal-Boardman / Polando Field Airport

Hyannis, Massachusetts, USA
METAR KHYA 171446Z 32013G21KT 2 1/2SM -RA BR OVC006 04/03 A2955 RMK AO2 P0000 T00440028
Observed Flight Rules
Dec-17 @ 14:46 UTC (9 minutes ago) Instrument Flight Rules
Wind Visibility Clouds Conditions
320° at 13 knots
 Gusting to 21 knots
2 1/2 miles
  • Overcast at 600' AGL
  • Light Rain
  • Mist
Temperatures Readings Precipitation
Current 4°C / 39°F
Dewpoint 3°C / 37°F
Humidity 93%
Altimeter 29.55" Hg
Pressure 1001 hPa
Elevation 22
Current Rain 0.005
METAR KHYA 171446Z 32013G21KT 2 1/2SM -RA BR OVC006 04/03 A2955 RMK AO2 P0000 T00440028
Observed Flight Rules
Dec-17 @ 14:46 UTC
(9 minutes ago)
IFR
Wind Visibility
320° at 13 knots
 Gusting to 21 knots
2 1/2 miles
Clouds
  • Overcast at 600' AGL
Conditions
  • Light Rain
  • Mist
Temperature Dewpoint
4°C / 39°F 3°C / 37°F
Humidity Altimeter Pressure
93% 29.55" Hg 1001 hPa
Current Rain
0.005